sensor_id;sensor_type;location;lat;lon;timestamp;pressure;altitude;pressure_sealevel;temperature;humidity
16664;BME280;8445;51.270;9.434;2024-02-28T00:01:33;99778.44;;;1.56;82.16
16664;BME280;8445;51.270;9.434;2024-02-28T00:03:59;99767.66;;;1.59;82.46
16664;BME280;8445;51.270;9.434;2024-02-28T00:06:25;99774.66;;;1.70;82.20
16664;BME280;8445;51.270;9.434;2024-02-28T00:08:51;99778.72;;;1.74;81.85
16664;BME280;8445;51.270;9.434;2024-02-28T00:11:21;99779.56;;;1.74;81.68
16664;BME280;8445;51.270;9.434;2024-02-28T00:13:55;99802.03;;;1.88;81.38
16664;BME280;8445;51.270;9.434;2024-02-28T00:16:22;99779.59;;;1.84;81.51
16664;BME280;8445;51.270;9.434;2024-02-28T00:18:51;99776.59;;;1.89;81.22
16664;BME280;8445;51.270;9.434;2024-02-28T00:21:19;99793.50;;;1.96;81.51
16664;BME280;8445;51.270;9.434;2024-02-28T00:23:45;99805.53;;;1.98;81.28
16664;BME280;8445;51.270;9.434;2024-02-28T00:26:12;99799.91;;;2.03;81.17
16664;BME280;8445;51.270;9.434;2024-02-28T00:28:38;99806.88;;;2.14;80.99
16664;BME280;8445;51.270;9.434;2024-02-28T00:31:04;99818.81;;;2.18;80.80
16664;BME280;8445;51.270;9.434;2024-02-28T00:33:30;99794.84;;;2.11;80.94
16664;BME280;8445;51.270;9.434;2024-02-28T00:35:58;99778.56;;;1.96;81.01
16664;BME280;8445;51.270;9.434;2024-02-28T00:38:24;99812.19;;;2.23;80.64
16664;BME280;8445;51.270;9.434;2024-02-28T00:40:49;99802.66;;;2.22;81.02
16664;BME280;8445;51.270;9.434;2024-02-28T00:43:16;99812.53;;;2.30;81.31
16664;BME280;8445;51.270;9.434;2024-02-28T00:45:41;99814.06;;;2.32;81.16
16664;BME280;8445;51.270;9.434;2024-02-28T00:48:10;99815.72;;;2.33;81.15
16664;BME280;8445;51.270;9.434;2024-02-28T00:50:39;99805.47;;;2.30;80.96
16664;BME280;8445;51.270;9.434;2024-02-28T00:53:05;99821.47;;;2.48;80.86
16664;BME280;8445;51.270;9.434;2024-02-28T00:55:31;99827.28;;;2.52;80.72
16664;BME280;8445;51.270;9.434;2024-02-28T00:57:57;99812.63;;;2.49;80.63
16664;BME280;8445;51.270;9.434;2024-02-28T01:00:23;99779.06;;;2.32;80.51
16664;BME280;8445;51.270;9.434;2024-02-28T01:02:49;99821.78;;;2.55;80.50
16664;BME280;8445;51.270;9.434;2024-02-28T01:05:15;99807.22;;;2.51;80.35
16664;BME280;8445;51.270;9.434;2024-02-28T01:07:48;99822.09;;;2.61;80.39
16664;BME280;8445;51.270;9.434;2024-02-28T01:10:14;99828.75;;;2.65;80.32
16664;BME280;8445;51.270;9.434;2024-02-28T01:12:40;99827.78;;;2.66;80.38
16664;BME280;8445;51.270;9.434;2024-02-28T01:15:06;99793.53;;;2.47;80.07
16664;BME280;8445;51.270;9.434;2024-02-28T01:17:33;99841.50;;;2.70;80.08
16664;BME280;8445;51.270;9.434;2024-02-28T01:19:59;99836.69;;;2.75;80.04
16664;BME280;8445;51.270;9.434;2024-02-28T01:22:25;99828.78;;;2.75;79.94
16664;BME280;8445;51.270;9.434;2024-02-28T01:24:51;99833.09;;;2.76;80.04
16664;BME280;8445;51.270;9.434;2024-02-28T01:27:17;99844.28;;;2.78;80.24
16664;BME280;8445;51.270;9.434;2024-02-28T01:29:42;99821.69;;;2.66;80.05
16664;BME280;8445;51.270;9.434;2024-02-28T01:32:09;99824.91;;;2.79;79.92
16664;BME280;8445;51.270;9.434;2024-02-28T01:34:36;99836.72;;;2.85;80.14
16664;BME280;8445;51.270;9.434;2024-02-28T01:37:01;99846.84;;;2.89;79.96
16664;BME280;8445;51.270;9.434;2024-02-28T01:39:27;99836.59;;;2.86;80.10
16664;BME280;8445;51.270;9.434;2024-02-28T01:41:54;99846.56;;;2.92;80.13
16664;BME280;8445;51.270;9.434;2024-02-28T01:44:21;99847.16;;;2.96;80.09
16664;BME280;8445;51.270;9.434;2024-02-28T01:46:47;99839.25;;;2.96;80.00
16664;BME280;8445;51.270;9.434;2024-02-28T01:49:14;99846.06;;;2.99;80.05
16664;BME280;8445;51.270;9.434;2024-02-28T01:51:42;99839.13;;;2.97;79.82
16664;BME280;8445;51.270;9.434;2024-02-28T01:54:11;99848.13;;;3.05;79.86
16664;BME280;8445;51.270;9.434;2024-02-28T01:56:37;99843.69;;;3.05;79.81
16664;BME280;8445;51.270;9.434;2024-02-28T01:59:05;99841.47;;;3.01;79.84
16664;BME280;8445;51.270;9.434;2024-02-28T02:01:31;99839.69;;;3.01;79.82
16664;BME280;8445;51.270;9.434;2024-02-28T02:03:57;99833.03;;;3.07;79.79
16664;BME280;8445;51.270;9.434;2024-02-28T02:06:23;99846.38;;;3.15;79.71
16664;BME280;8445;51.270;9.434;2024-02-28T02:08:51;99843.75;;;3.15;79.48
16664;BME280;8445;51.270;9.434;2024-02-28T02:11:27;99819.78;;;3.08;79.69
16664;BME280;8445;51.270;9.434;2024-02-28T02:14:01;99826.69;;;3.19;79.59
16664;BME280;8445;51.270;9.434;2024-02-28T02:16:27;99818.53;;;3.12;79.51
16664;BME280;8445;51.270;9.434;2024-02-28T02:18:53;99833.38;;;3.23;79.38
16664;BME280;8445;51.270;9.434;2024-02-28T02:21:30;99836.72;;;3.25;79.76
16664;BME280;8445;51.270;9.434;2024-02-28T02:23:59;99839.34;;;3.25;79.41
16664;BME280;8445;51.270;9.434;2024-02-28T02:26:25;99834.22;;;3.23;79.53
16664;BME280;8445;51.270;9.434;2024-02-28T02:28:50;99838.66;;;3.23;79.75
16664;BME280;8445;51.270;9.434;2024-02-28T02:31:16;99842.94;;;3.24;79.43
16664;BME280;8445;51.270;9.434;2024-02-28T02:33:42;99848.91;;;3.26;79.51
16664;BME280;8445;51.270;9.434;2024-02-28T02:36:08;99848.91;;;3.26;79.14
16664;BME280;8445;51.270;9.434;2024-02-28T02:38:34;99832.69;;;3.21;79.44
16664;BME280;8445;51.270;9.434;2024-02-28T02:41:00;99848.91;;;3.26;79.38
16664;BME280;8445;51.270;9.434;2024-02-28T02:43:26;99830.06;;;3.21;79.62
16664;BME280;8445;51.270;9.434;2024-02-28T02:45:52;99835.59;;;3.28;79.23
16664;BME280;8445;51.270;9.434;2024-02-28T02:48:18;99818.81;;;3.19;79.19
16664;BME280;8445;51.270;9.434;2024-02-28T02:50:43;99835.03;;;3.24;79.22
16664;BME280;8445;51.270;9.434;2024-02-28T02:53:10;99825.72;;;3.20;79.29
16664;BME280;8445;51.270;9.434;2024-02-28T02:55:36;99830.72;;;3.13;79.18
16664;BME280;8445;51.270;9.434;2024-02-28T02:58:02;99836.41;;;3.09;79.07
16664;BME280;8445;51.270;9.434;2024-02-28T03:00:29;99823.19;;;2.99;79.34
16664;BME280;8445;51.270;9.434;2024-02-28T03:02:55;99829.47;;;3.08;79.43
16664;BME280;8445;51.270;9.434;2024-02-28T03:05:21;99837.38;;;3.08;79.31
16664;BME280;8445;51.270;9.434;2024-02-28T03:07:47;99817.94;;;2.99;79.17
16664;BME280;8445;51.270;9.434;2024-02-28T03:10:12;99826.13;;;3.06;79.06
16664;BME280;8445;51.270;9.434;2024-02-28T03:12:38;99826.94;;;3.06;79.19
16664;BME280;8445;51.270;9.434;2024-02-28T03:15:05;99836.53;;;3.07;79.53
16664;BME280;8445;51.270;9.434;2024-02-28T03:17:31;99835.66;;;3.07;79.46
16664;BME280;8445;51.270;9.434;2024-02-28T03:19:59;99833.03;;;3.07;79.09
16664;BME280;8445;51.270;9.434;2024-02-28T03:22:25;99839.16;;;3.07;79.30
16664;BME280;8445;51.270;9.434;2024-02-28T03:24:51;99827.78;;;3.07;79.12
16664;BME280;8445;51.270;9.434;2024-02-28T03:27:17;99838.88;;;3.10;79.02
16664;BME280;8445;51.270;9.434;2024-02-28T03:29:42;99821.97;;;3.03;79.21
16664;BME280;8445;51.270;9.434;2024-02-28T03:32:10;99831.97;;;3.09;79.15
16664;BME280;8445;51.270;9.434;2024-02-28T03:34:36;99843.88;;;3.13;79.06
16664;BME280;8445;51.270;9.434;2024-02-28T03:37:01;99848.31;;;3.13;79.02
16664;BME280;8445;51.270;9.434;2024-02-28T03:39:27;99842.22;;;3.12;79.00
16664;BME280;8445;51.270;9.434;2024-02-28T03:41:53;99846.38;;;3.15;79.03
16664;BME280;8445;51.270;9.434;2024-02-28T03:44:19;99840.41;;;3.13;79.01
16664;BME280;8445;51.270;9.434;2024-02-28T03:46:47;99849.00;;;3.15;78.91
16664;BME280;8445;51.270;9.434;2024-02-28T03:49:13;99843.03;;;3.13;78.90
16664;BME280;8445;51.270;9.434;2024-02-28T03:51:41;99848.03;;;3.16;79.04
16664;BME280;8445;51.270;9.434;2024-02-28T03:54:08;99844.84;;;3.12;79.06
16664;BME280;8445;51.270;9.434;2024-02-28T03:56:34;99854.13;;;3.16;79.03
16664;BME280;8445;51.270;9.434;2024-02-28T03:59:01;99856.06;;;3.14;78.98
16664;BME280;8445;51.270;9.434;2024-02-28T04:01:27;99847.75;;;3.09;78.88
16664;BME280;8445;51.270;9.434;2024-02-28T04:03:53;99851.34;;;3.08;78.89
16664;BME280;8445;51.270;9.434;2024-02-28T04:06:20;99872.00;;;3.13;78.73
16664;BME280;8445;51.270;9.434;2024-02-28T04:08:46;99857.97;;;3.03;78.60
16664;BME280;8445;51.270;9.434;2024-02-28T04:11:12;99870.59;;;3.09;79.00
16664;BME280;8445;51.270;9.434;2024-02-28T04:13:39;99871.56;;;3.08;78.54
16664;BME280;8445;51.270;9.434;2024-02-28T04:16:08;99874.06;;;3.09;78.64
16664;BME280;8445;51.270;9.434;2024-02-28T04:18:34;99882.94;;;3.08;79.09
16664;BME280;8445;51.270;9.434;2024-02-28T04:21:00;99890.00;;;3.08;79.00
16664;BME280;8445;51.270;9.434;2024-02-28T04:23:26;99892.88;;;3.05;78.78
16664;BME280;8445;51.270;9.434;2024-02-28T04:25:52;99898.13;;;3.05;78.66
16664;BME280;8445;51.270;9.434;2024-02-28T04:28:17;99903.38;;;3.05;78.72
16664;BME280;8445;51.270;9.434;2024-02-28T04:30:43;99901.16;;;3.00;78.88
16664;BME280;8445;51.270;9.434;2024-02-28T04:33:09;99899.19;;;2.92;78.75
16664;BME280;8445;51.270;9.434;2024-02-28T04:35:35;99918.88;;;2.98;78.90
16664;BME280;8445;51.270;9.434;2024-02-28T04:38:01;99929.84;;;3.03;79.14
16664;BME280;8445;51.270;9.434;2024-02-28T04:40:27;99927.34;;;3.02;78.95
16664;BME280;8445;51.270;9.434;2024-02-28T04:42:53;99924.28;;;2.96;79.17
16664;BME280;8445;51.270;9.434;2024-02-28T04:45:19;99918.75;;;3.00;78.85
16664;BME280;8445;51.270;9.434;2024-02-28T04:47:44;99929.97;;;3.02;79.04
16664;BME280;8445;51.270;9.434;2024-02-28T04:50:11;99934.41;;;3.01;79.04
16664;BME280;8445;51.270;9.434;2024-02-28T04:52:37;99925.25;;;2.95;78.81
16664;BME280;8445;51.270;9.434;2024-02-28T04:55:03;99920.22;;;2.92;78.98
16664;BME280;8445;51.270;9.434;2024-02-28T04:57:29;99941.47;;;3.01;78.82
16664;BME280;8445;51.270;9.434;2024-02-28T04:59:55;99935.50;;;2.99;79.07
16664;BME280;8445;51.270;9.434;2024-02-28T05:02:21;99945.56;;;2.93;79.16
16664;BME280;8445;51.270;9.434;2024-02-28T05:04:48;99941.41;;;2.91;79.23
16664;BME280;8445;51.270;9.434;2024-02-28T05:07:14;99943.81;;;2.94;79.16
16664;BME280;8445;51.270;9.434;2024-02-28T05:09:42;99904.63;;;2.70;78.98
16664;BME280;8445;51.270;9.434;2024-02-28T05:12:08;99942.94;;;2.93;79.22
16664;BME280;8445;51.270;9.434;2024-02-28T05:14:34;99951.69;;;2.94;79.18
16664;BME280;8445;51.270;9.434;2024-02-28T05:17:00;99956.09;;;2.93;79.12
16664;BME280;8445;51.270;9.434;2024-02-28T05:19:26;99962.44;;;2.91;79.26
16664;BME280;8445;51.270;9.434;2024-02-28T05:21:52;99963.28;;;2.91;79.22
16664;BME280;8445;51.270;9.434;2024-02-28T05:24:18;99968.81;;;2.88;78.96
16664;BME280;8445;51.270;9.434;2024-02-28T05:26:44;99969.66;;;2.89;79.08
16664;BME280;8445;51.270;9.434;2024-02-28T05:29:09;99962.16;;;2.84;79.68
16664;BME280;8445;51.270;9.434;2024-02-28T05:31:37;99962.53;;;2.80;79.29
16664;BME280;8445;51.270;9.434;2024-02-28T05:34:04;99952.25;;;2.77;79.75
16664;BME280;8445;51.270;9.434;2024-02-28T05:36:30;99957.91;;;2.72;79.63
16664;BME280;8445;51.270;9.434;2024-02-28T05:38:58;99951.06;;;2.60;79.37
16664;BME280;8445;51.270;9.434;2024-02-28T05:41:25;99971.06;;;2.72;79.79
16664;BME280;8445;51.270;9.434;2024-02-28T05:43:51;99974.09;;;2.67;79.82
16664;BME280;8445;51.270;9.434;2024-02-28T05:46:19;99977.44;;;2.70;80.08
16664;BME280;8445;51.270;9.434;2024-02-28T05:48:46;99974.47;;;2.63;80.21
16664;BME280;8445;51.270;9.434;2024-02-28T05:51:12;99977.00;;;2.53;80.87
16664;BME280;8445;51.270;9.434;2024-02-28T05:53:41;99976.25;;;2.42;80.96
16664;BME280;8445;51.270;9.434;2024-02-28T05:56:09;99974.25;;;2.34;80.76
16664;BME280;8445;51.270;9.434;2024-02-28T05:58:46;99991.91;;;2.43;80.67
16664;BME280;8445;51.270;9.434;2024-02-28T06:01:16;99990.81;;;2.46;80.55
16664;BME280;8445;51.270;9.434;2024-02-28T06:03:50;99978.16;;;2.40;80.47
16664;BME280;8445;51.270;9.434;2024-02-28T06:06:17;99993.03;;;2.50;80.54
16664;BME280;8445;51.270;9.434;2024-02-28T06:08:43;99990.56;;;2.49;80.34
16664;BME280;8445;51.270;9.434;2024-02-28T06:11:10;99980.28;;;2.46;80.63
16664;BME280;8445;51.270;9.434;2024-02-28T06:13:36;100003.91;;;2.57;80.38
16664;BME280;8445;51.270;9.434;2024-02-28T06:16:03;100013.47;;;2.58;80.56
16664;BME280;8445;51.270;9.434;2024-02-28T06:18:29;99999.97;;;2.51;80.29
16664;BME280;8445;51.270;9.434;2024-02-28T06:20:59;100009.16;;;2.57;80.44
16664;BME280;8445;51.270;9.434;2024-02-28T06:23:28;100008.56;;;2.53;80.16
16664;BME280;8445;51.270;9.434;2024-02-28T06:25:55;99993.00;;;2.41;80.40
16664;BME280;8445;51.270;9.434;2024-02-28T06:28:21;100009.16;;;2.57;79.76
16664;BME280;8445;51.270;9.434;2024-02-28T06:30:47;100015.84;;;2.61;80.36
16664;BME280;8445;51.270;9.434;2024-02-28T06:33:14;100027.06;;;2.63;80.08
16664;BME280;8445;51.270;9.434;2024-02-28T06:35:40;100034.69;;;2.66;80.42
16664;BME280;8445;51.270;9.434;2024-02-28T06:38:06;100037.44;;;2.64;80.46
16664;BME280;8445;51.270;9.434;2024-02-28T06:40:33;100036.59;;;2.64;80.28
16664;BME280;8445;51.270;9.434;2024-02-28T06:43:00;100028.72;;;2.64;80.29
16664;BME280;8445;51.270;9.434;2024-02-28T06:45:29;100033.72;;;2.67;80.26
16664;BME280;8445;51.270;9.434;2024-02-28T06:47:55;100043.03;;;2.71;80.27
16664;BME280;8445;51.270;9.434;2024-02-28T06:50:21;100037.53;;;2.74;79.98
16664;BME280;8445;51.270;9.434;2024-02-28T06:52:47;100040.84;;;2.76;80.23
16664;BME280;8445;51.270;9.434;2024-02-28T06:55:13;100044.59;;;2.74;80.42
16664;BME280;8445;51.270;9.434;2024-02-28T06:57:42;100046.38;;;2.73;80.26
16664;BME280;8445;51.270;9.434;2024-02-28T07:00:10;100036.13;;;2.70;80.43
16664;BME280;8445;51.270;9.434;2024-02-28T07:02:44;100040.84;;;2.76;80.42
16664;BME280;8445;51.270;9.434;2024-02-28T07:05:10;100051.63;;;2.73;80.18
16664;BME280;8445;51.270;9.434;2024-02-28T07:07:36;100059.97;;;2.78;80.36
16664;BME280;8445;51.270;9.434;2024-02-28T07:10:04;100061.41;;;2.82;80.13
16664;BME280;8445;51.270;9.434;2024-02-28T07:12:30;100065.00;;;2.81;80.01
16664;BME280;8445;51.270;9.434;2024-02-28T07:14:56;100057.34;;;2.78;80.30
16664;BME280;8445;51.270;9.434;2024-02-28T07:17:22;100058.31;;;2.77;79.96
16664;BME280;8445;51.270;9.434;2024-02-28T07:19:48;100059.91;;;2.69;80.18
16664;BME280;8445;51.270;9.434;2024-02-28T07:22:14;100066.44;;;2.74;79.88
16664;BME280;8445;51.270;9.434;2024-02-28T07:24:40;100073.13;;;2.78;79.94
16664;BME280;8445;51.270;9.434;2024-02-28T07:27:06;100072.41;;;2.76;79.75
16664;BME280;8445;51.270;9.434;2024-02-28T07:29:32;100078.25;;;2.80;80.25
16664;BME280;8445;51.270;9.434;2024-02-28T07:31:59;100077.19;;;2.82;79.91
16664;BME280;8445;51.270;9.434;2024-02-28T07:34:28;100081.22;;;2.86;80.02
16664;BME280;8445;51.270;9.434;2024-02-28T07:36:54;100075.13;;;2.86;80.11
16664;BME280;8445;51.270;9.434;2024-02-28T07:39:23;100088.38;;;2.95;79.95
16664;BME280;8445;51.270;9.434;2024-02-28T07:41:50;100095.03;;;3.00;79.76
16664;BME280;8445;51.270;9.434;2024-02-28T07:44:16;100082.00;;;2.98;79.66
16664;BME280;8445;51.270;9.434;2024-02-28T07:46:42;100084.25;;;3.03;79.78
16664;BME280;8445;51.270;9.434;2024-02-28T07:49:08;100087.44;;;3.06;79.68
16664;BME280;8445;51.270;9.434;2024-02-28T07:51:34;100091.81;;;3.17;79.29
16664;BME280;8445;51.270;9.434;2024-02-28T07:54:00;100090.50;;;3.22;79.63
16664;BME280;8445;51.270;9.434;2024-02-28T07:56:26;100088.88;;;3.31;79.65
16664;BME280;8445;51.270;9.434;2024-02-28T07:58:52;100086.69;;;3.36;79.75
16664;BME280;8445;51.270;9.434;2024-02-28T08:01:18;100080.47;;;3.37;79.51
16664;BME280;8445;51.270;9.434;2024-02-28T08:03:44;100084.56;;;3.51;79.25
16664;BME280;8445;51.270;9.434;2024-02-28T08:06:10;100102.09;;;3.62;79.17
16664;BME280;8445;51.270;9.434;2024-02-28T08:08:36;100101.13;;;3.72;79.20
16664;BME280;8445;51.270;9.434;2024-02-28T08:11:02;100094.38;;;3.79;79.15
16664;BME280;8445;51.270;9.434;2024-02-28T08:13:29;100088.19;;;3.90;79.11
16664;BME280;8445;51.270;9.434;2024-02-28T08:15:56;100088.94;;;4.02;78.93
16664;BME280;8445;51.270;9.434;2024-02-28T08:18:22;100085.63;;;4.09;79.03
16664;BME280;8445;51.270;9.434;2024-02-28T08:20:47;100083.72;;;4.21;79.05
16664;BME280;8445;51.270;9.434;2024-02-28T08:23:15;100080.28;;;4.30;79.04
16664;BME280;8445;51.270;9.434;2024-02-28T08:25:41;100087.47;;;4.38;78.86
16664;BME280;8445;51.270;9.434;2024-02-28T08:28:07;100101.09;;;4.53;78.40
16664;BME280;8445;51.270;9.434;2024-02-28T08:30:32;100080.59;;;4.56;78.07
16664;BME280;8445;51.270;9.434;2024-02-28T08:32:59;100088.78;;;4.72;78.38
16664;BME280;8445;51.270;9.434;2024-02-28T08:35:25;100079.06;;;4.83;77.81
16664;BME280;8445;51.270;9.434;2024-02-28T08:37:52;100097.66;;;5.00;77.79
16664;BME280;8445;51.270;9.434;2024-02-28T08:40:18;100099.03;;;5.14;77.77
16664;BME280;8445;51.270;9.434;2024-02-28T08:42:44;100100.00;;;5.23;77.52
16664;BME280;8445;51.270;9.434;2024-02-28T08:45:11;100107.63;;;5.36;77.40
16664;BME280;8445;51.270;9.434;2024-02-28T08:47:37;100107.88;;;5.52;77.39
16664;BME280;8445;51.270;9.434;2024-02-28T08:50:04;100115.50;;;5.64;76.81
16664;BME280;8445;51.270;9.434;2024-02-28T08:52:30;100104.09;;;5.64;76.71
16664;BME280;8445;51.270;9.434;2024-02-28T08:54:56;100119.19;;;5.81;76.82
16664;BME280;8445;51.270;9.434;2024-02-28T08:57:22;100114.16;;;5.88;76.69
16664;BME280;8445;51.270;9.434;2024-02-28T08:59:50;100120.25;;;5.98;76.13
16664;BME280;8445;51.270;9.434;2024-02-28T09:02:16;100109.78;;;6.06;75.99
16664;BME280;8445;51.270;9.434;2024-02-28T09:04:42;100112.47;;;6.24;75.77
16664;BME280;8445;51.270;9.434;2024-02-28T09:07:08;100115.63;;;6.37;75.88
16664;BME280;8445;51.270;9.434;2024-02-28T09:09:33;100104.44;;;6.43;75.38
16664;BME280;8445;51.270;9.434;2024-02-28T09:12:04;100095.44;;;6.54;75.20
16664;BME280;8445;51.270;9.434;2024-02-28T09:14:30;100113.69;;;6.75;74.61
16664;BME280;8445;51.270;9.434;2024-02-28T09:16:55;100117.28;;;6.84;74.29
16664;BME280;8445;51.270;9.434;2024-02-28T09:19:32;100108.09;;;6.78;74.25
16664;BME280;8445;51.270;9.434;2024-02-28T09:21:59;100122.63;;;6.92;73.94
16664;BME280;8445;51.270;9.434;2024-02-28T09:24:26;100108.34;;;6.85;73.01
16664;BME280;8445;51.270;9.434;2024-02-28T09:26:52;100118.78;;;6.86;73.02
16664;BME280;8445;51.270;9.434;2024-02-28T09:29:18;100117.53;;;6.80;72.96
16664;BME280;8445;51.270;9.434;2024-02-28T09:31:44;100120.81;;;6.74;72.95
16664;BME280;8445;51.270;9.434;2024-02-28T09:34:10;100112.66;;;6.68;73.18
16664;BME280;8445;51.270;9.434;2024-02-28T09:36:42;100116.56;;;6.64;72.74
16664;BME280;8445;51.270;9.434;2024-02-28T09:39:09;100124.44;;;6.56;72.76
16664;BME280;8445;51.270;9.434;2024-02-28T09:41:35;100122.00;;;6.44;72.99
16664;BME280;8445;51.270;9.434;2024-02-28T09:44:03;100124.22;;;6.39;72.76
16664;BME280;8445;51.270;9.434;2024-02-28T09:46:30;100119.91;;;6.38;72.98
16664;BME280;8445;51.270;9.434;2024-02-28T09:48:58;100131.19;;;6.40;73.08
16664;BME280;8445;51.270;9.434;2024-02-28T09:51:26;100130.31;;;6.49;72.82
16664;BME280;8445;51.270;9.434;2024-02-28T09:53:53;100134.75;;;6.49;72.21
16664;BME280;8445;51.270;9.434;2024-02-28T09:56:20;100140.44;;;6.54;71.85
16664;BME280;8445;51.270;9.434;2024-02-28T09:58:48;100125.00;;;6.49;71.49
16664;BME280;8445;51.270;9.434;2024-02-28T10:01:18;100141.00;;;6.58;71.67
16664;BME280;8445;51.270;9.434;2024-02-28T10:03:52;100125.47;;;6.63;71.94
16664;BME280;8445;51.270;9.434;2024-02-28T10:06:22;100150.16;;;6.81;71.92
16664;BME280;8445;51.270;9.434;2024-02-28T10:08:48;100138.97;;;6.87;72.20
16664;BME280;8445;51.270;9.434;2024-02-28T10:11:22;100144.56;;;7.02;72.09
16664;BME280;8445;51.270;9.434;2024-02-28T10:13:48;100147.00;;;7.13;71.21
16664;BME280;8445;51.270;9.434;2024-02-28T10:16:16;100149.34;;;7.16;70.63
16664;BME280;8445;51.270;9.434;2024-02-28T10:18:48;100156.81;;;7.21;71.05
16664;BME280;8445;51.270;9.434;2024-02-28T10:21:18;100166.91;;;7.35;70.80
16664;BME280;8445;51.270;9.434;2024-02-28T10:23:45;100166.28;;;7.41;70.90
16664;BME280;8445;51.270;9.434;2024-02-28T10:26:18;100159.81;;;7.44;70.13
16664;BME280;8445;51.270;9.434;2024-02-28T10:28:52;100170.34;;;7.53;71.00
16664;BME280;8445;51.270;9.434;2024-02-28T10:31:21;100169.78;;;7.67;70.30
16664;BME280;8445;51.270;9.434;2024-02-28T10:33:50;100161.06;;;7.75;69.58
16664;BME280;8445;51.270;9.434;2024-02-28T10:36:20;100174.19;;;7.85;68.83
16664;BME280;8445;51.270;9.434;2024-02-28T10:38:46;100163.75;;;7.83;68.71
16664;BME280;8445;51.270;9.434;2024-02-28T10:41:15;100164.81;;;7.90;68.52
16664;BME280;8445;51.270;9.434;2024-02-28T10:43:45;100164.53;;;8.02;68.48
16664;BME280;8445;51.270;9.434;2024-02-28T10:46:14;100165.38;;;8.02;68.14
16664;BME280;8445;51.270;9.434;2024-02-28T10:48:41;100166.72;;;8.06;68.21
16664;BME280;8445;51.270;9.434;2024-02-28T10:51:09;100164.06;;;8.06;67.37
16664;BME280;8445;51.270;9.434;2024-02-28T10:53:41;100165.91;;;8.14;67.97
16664;BME280;8445;51.270;9.434;2024-02-28T10:56:11;100155.66;;;8.19;68.20
16664;BME280;8445;51.270;9.434;2024-02-28T10:58:52;100169.38;;;8.40;68.30
16664;BME280;8445;51.270;9.434;2024-02-28T11:01:22;100155.81;;;8.51;68.14
16664;BME280;8445;51.270;9.434;2024-02-28T11:03:50;100153.19;;;8.68;67.44
16664;BME280;8445;51.270;9.434;2024-02-28T11:06:22;100141.63;;;8.69;67.94
16664;BME280;8445;51.270;9.434;2024-02-28T11:08:49;100159.56;;;8.91;67.95
16664;BME280;8445;51.270;9.434;2024-02-28T11:11:31;100152.94;;;9.03;67.56
16664;BME280;8445;51.270;9.434;2024-02-28T11:13:59;100149.97;;;9.14;67.24
16664;BME280;8445;51.270;9.434;2024-02-28T11:16:33;100151.81;;;9.22;65.69
16664;BME280;8445;51.270;9.434;2024-02-28T11:19:01;100141.03;;;9.24;66.14
16664;BME280;8445;51.270;9.434;2024-02-28T11:21:28;100154.28;;;9.32;66.02
16664;BME280;8445;51.270;9.434;2024-02-28T11:24:02;100148.66;;;9.43;65.96
16664;BME280;8445;51.270;9.434;2024-02-28T11:26:29;100148.31;;;9.46;65.38
16664;BME280;8445;51.270;9.434;2024-02-28T11:28:56;100126.88;;;9.47;65.65
16664;BME280;8445;51.270;9.434;2024-02-28T11:31:22;100132.19;;;9.56;65.28
16664;BME280;8445;51.270;9.434;2024-02-28T11:33:50;100133.66;;;9.66;65.53
16664;BME280;8445;51.270;9.434;2024-02-28T11:36:16;100131.84;;;9.75;65.30
16664;BME280;8445;51.270;9.434;2024-02-28T11:38:43;100129.16;;;9.83;64.92
16664;BME280;8445;51.270;9.434;2024-02-28T11:41:11;100138.78;;;9.92;65.32
16664;BME280;8445;51.270;9.434;2024-02-28T11:43:37;100126.47;;;9.91;64.92
16664;BME280;8445;51.270;9.434;2024-02-28T11:46:09;100133.47;;;9.92;64.76
16664;BME280;8445;51.270;9.434;2024-02-28T11:48:42;100121.47;;;9.96;64.50
16664;BME280;8445;51.270;9.434;2024-02-28T11:51:08;100121.94;;;10.00;64.60
16664;BME280;8445;51.270;9.434;2024-02-28T11:53:34;100117.78;;;9.97;63.92
16664;BME280;8445;51.270;9.434;2024-02-28T11:56:09;100121.94;;;10.00;62.55
16664;BME280;8445;51.270;9.434;2024-02-28T11:58:35;100116.66;;;9.84;62.35
16664;BME280;8445;51.270;9.434;2024-02-28T12:01:01;100129.50;;;9.80;62.86
16664;BME280;8445;51.270;9.434;2024-02-28T12:03:27;100119.69;;;9.81;63.50
16664;BME280;8445;51.270;9.434;2024-02-28T12:05:55;100121.81;;;9.85;62.97
16664;BME280;8445;51.270;9.434;2024-02-28T12:08:21;100125.13;;;9.87;63.33
16664;BME280;8445;51.270;9.434;2024-02-28T12:10:48;100123.63;;;9.93;63.90
16664;BME280;8445;51.270;9.434;2024-02-28T12:13:23;100126.78;;;9.96;64.01
16664;BME280;8445;51.270;9.434;2024-02-28T12:15:51;100124.94;;;10.05;63.74
16664;BME280;8445;51.270;9.434;2024-02-28T12:18:19;100122.56;;;10.10;63.71
16664;BME280;8445;51.270;9.434;2024-02-28T12:20:45;100104.31;;;10.07;63.35
16664;BME280;8445;51.270;9.434;2024-02-28T12:23:12;100128.38;;;10.22;62.96
16664;BME280;8445;51.270;9.434;2024-02-28T12:25:48;100114.91;;;10.23;63.00
16664;BME280;8445;51.270;9.434;2024-02-28T12:28:13;100109.22;;;10.26;61.99
16664;BME280;8445;51.270;9.434;2024-02-28T12:30:41;100131.63;;;10.40;61.98
16664;BME280;8445;51.270;9.434;2024-02-28T12:33:13;100128.47;;;10.45;61.94
16664;BME280;8445;51.270;9.434;2024-02-28T12:35:39;100113.66;;;10.42;61.64
16664;BME280;8445;51.270;9.434;2024-02-28T12:38:07;100111.97;;;10.49;61.87
16664;BME280;8445;51.270;9.434;2024-02-28T12:40:33;100113.06;;;10.55;61.97
16664;BME280;8445;51.270;9.434;2024-02-28T12:42:59;100107.25;;;10.59;61.92
16664;BME280;8445;51.270;9.434;2024-02-28T12:45:25;100105.88;;;10.63;61.69
16664;BME280;8445;51.270;9.434;2024-02-28T12:47:51;100097.53;;;10.66;61.27
16664;BME280;8445;51.270;9.434;2024-02-28T12:50:18;100098.03;;;10.70;61.32
16664;BME280;8445;51.270;9.434;2024-02-28T12:52:46;100097.50;;;10.75;60.55
16664;BME280;8445;51.270;9.434;2024-02-28T12:55:14;100108.88;;;10.69;60.28
16664;BME280;8445;51.270;9.434;2024-02-28T12:57:40;100097.53;;;10.66;60.91
16664;BME280;8445;51.270;9.434;2024-02-28T13:00:07;100093.56;;;10.62;60.43
16664;BME280;8445;51.270;9.434;2024-02-28T13:02:33;100094.28;;;10.56;60.20
16664;BME280;8445;51.270;9.434;2024-02-28T13:04:59;100092.66;;;10.47;60.06
16664;BME280;8445;51.270;9.434;2024-02-28T13:07:25;100088.56;;;10.36;60.36
16664;BME280;8445;51.270;9.434;2024-02-28T13:09:51;100089.44;;;10.29;60.61
16664;BME280;8445;51.270;9.434;2024-02-28T13:12:17;100086.94;;;10.19;60.11
16664;BME280;8445;51.270;9.434;2024-02-28T13:14:53;100085.13;;;10.12;60.50